createdAt,value
2022-09-15T00:01:35.330Z,13.20
2022-09-15T00:04:14.001Z,13.20
2022-09-15T00:06:42.345Z,13.20
2022-09-15T00:09:17.002Z,13.10
2022-09-15T00:11:45.510Z,13.20
2022-09-15T00:14:21.000Z,13.20
2022-09-15T00:16:49.503Z,13.20
2022-09-15T00:19:25.838Z,13.20
2022-09-15T00:22:01.257Z,13.10
2022-09-15T00:24:45.142Z,13.10
2022-09-15T00:27:13.598Z,13.10
2022-09-15T00:29:48.884Z,13.10
2022-09-15T00:32:17.704Z,13.10
2022-09-15T00:34:55.007Z,13.00
2022-09-15T00:37:23.830Z,13.00
2022-09-15T00:40:01.516Z,12.90
2022-09-15T00:42:36.888Z,12.90
2022-09-15T00:45:10.214Z,12.90
2022-09-15T00:47:48.013Z,12.90
2022-09-15T00:50:20.245Z,12.80
2022-09-15T00:52:58.833Z,12.80
2022-09-15T00:55:30.959Z,12.80
2022-09-15T00:58:09.028Z,12.80
2022-09-15T01:00:37.762Z,12.80
2022-09-15T01:03:12.838Z,12.80
2022-09-15T01:05:46.981Z,12.70
2022-09-15T01:08:26.990Z,12.70
2022-09-15T01:10:58.121Z,12.70
2022-09-15T01:13:33.853Z,12.70
2022-09-15T01:16:13.065Z,12.70
2022-09-15T01:18:59.093Z,12.70
2022-09-15T01:21:46.361Z,12.70
2022-09-15T01:24:54.069Z,12.60
2022-09-15T01:27:43.203Z,12.60
2022-09-15T01:30:23.053Z,12.60
2022-09-15T01:33:14.953Z,12.50
2022-09-15T01:36:04.942Z,12.50
2022-09-15T01:38:41.881Z,12.50
2022-09-15T01:41:26.049Z,12.50
2022-09-15T01:44:02.600Z,12.50
2022-09-15T01:46:42.957Z,12.50
2022-09-15T01:49:15.863Z,12.50
2022-09-15T01:51:52.073Z,12.50
2022-09-15T01:54:24.083Z,12.50
2022-09-15T01:56:59.070Z,12.50
2022-09-15T01:59:27.585Z,12.50
2022-09-15T02:02:09.964Z,12.50
2022-09-15T02:04:41.602Z,12.50
2022-09-15T02:07:24.099Z,12.50
2022-09-15T02:10:00.940Z,12.50
2022-09-15T02:12:44.959Z,12.60
2022-09-15T02:15:16.326Z,12.60
2022-09-15T02:17:56.976Z,12.60
2022-09-15T02:20:34.563Z,12.70
2022-09-15T02:23:22.103Z,12.70
2022-09-15T02:25:54.102Z,12.70
2022-09-15T02:28:35.029Z,12.80
2022-09-15T02:31:05.448Z,12.80
2022-09-15T02:33:46.960Z,12.80
2022-09-15T02:36:20.094Z,12.80
2022-09-15T02:38:59.006Z,12.90
2022-09-15T02:41:28.445Z,12.90
2022-09-15T02:44:02.938Z,12.90
2022-09-15T02:46:31.816Z,12.90
2022-09-15T02:49:08.127Z,12.90
2022-09-15T02:51:36.640Z,12.90
2022-09-15T02:54:12.054Z,12.90
2022-09-15T02:56:43.260Z,12.90
2022-09-15T03:02:15.021Z,13.00
2022-09-15T03:04:51.170Z,13.00
2022-09-15T03:07:21.919Z,13.00
2022-09-15T03:09:57.168Z,13.00
2022-09-15T03:12:26.246Z,13.00
2022-09-15T03:15:01.166Z,13.00
2022-09-15T03:17:29.554Z,13.00
2022-09-15T03:20:07.048Z,13.10
2022-09-15T03:22:55.140Z,13.10
2022-09-15T03:25:29.997Z,13.10
2022-09-15T03:27:58.548Z,13.10
2022-09-15T03:30:33.208Z,13.10
2022-09-15T03:33:01.722Z,13.20
2022-09-15T03:35:38.200Z,13.20
2022-09-15T03:38:08.649Z,13.20
2022-09-15T03:40:44.257Z,13.20
2022-09-15T03:43:18.556Z,13.20
2022-09-15T03:45:56.873Z,13.20
2022-09-15T03:48:26.057Z,13.20
2022-09-15T03:51:03.042Z,13.20
2022-09-15T03:53:33.489Z,13.30
2022-09-15T03:56:16.238Z,13.30
2022-09-15T03:58:44.638Z,13.30
2022-09-15T04:01:20.206Z,13.30
2022-09-15T04:03:51.357Z,13.30
2022-09-15T04:06:31.428Z,13.30
2022-09-15T04:09:00.587Z,13.30
2022-09-15T04:11:36.068Z,13.30
2022-09-15T04:14:04.787Z,13.30
2022-09-15T04:16:40.218Z,13.30
2022-09-15T04:19:09.006Z,13.30
2022-09-15T04:21:45.082Z,13.20
2022-09-15T04:24:13.749Z,13.20
2022-09-15T04:26:48.195Z,13.20
2022-09-15T04:29:17.862Z,13.20
2022-09-15T04:31:53.272Z,13.20
2022-09-15T04:34:21.783Z,13.30
2022-09-15T04:36:59.042Z,13.20
2022-09-15T04:39:27.420Z,13.30
2022-09-15T04:42:02.091Z,13.20
2022-09-15T04:44:30.582Z,13.20
2022-09-15T04:47:06.111Z,13.20
2022-09-15T04:49:34.550Z,13.20
2022-09-15T04:52:12.072Z,13.20
2022-09-15T04:54:40.421Z,13.20
2022-09-15T04:57:16.117Z,13.20
2022-09-15T04:59:44.767Z,13.10
2022-09-15T05:02:20.211Z,13.10
2022-09-15T05:04:51.614Z,13.10
2022-09-15T05:07:28.103Z,13.10
2022-09-15T05:10:03.065Z,13.10
2022-09-15T05:12:31.495Z,13.00
2022-09-15T05:15:06.071Z,13.00
2022-09-15T05:17:34.861Z,13.00
2022-09-15T05:20:11.257Z,13.00
2022-09-15T05:23:01.066Z,12.90
2022-09-15T05:25:37.257Z,13.00
2022-09-15T05:28:05.837Z,13.00
2022-09-15T05:30:52.345Z,13.00
2022-09-15T05:33:21.334Z,12.90
2022-09-15T05:36:00.147Z,12.90
2022-09-15T05:38:31.821Z,12.90
2022-09-15T05:41:11.089Z,12.90
2022-09-15T05:43:40.889Z,12.90
2022-09-15T05:46:17.175Z,12.90
2022-09-15T05:48:46.983Z,12.90
2022-09-15T05:51:22.163Z,12.90
2022-09-15T05:53:52.131Z,13.00
2022-09-15T05:56:28.119Z,13.00
2022-09-15T05:58:57.301Z,13.10
2022-09-15T06:01:34.223Z,13.10
2022-09-15T06:04:05.050Z,13.10
2022-09-15T06:06:40.133Z,13.20
2022-09-15T06:09:10.145Z,13.20
2022-09-15T06:11:45.220Z,13.30
2022-09-15T06:14:15.024Z,13.30
2022-09-15T06:17:00.155Z,13.30
2022-09-15T06:19:28.604Z,13.30
2022-09-15T06:22:03.126Z,13.30
2022-09-15T06:24:40.004Z,13.40
2022-09-15T06:27:15.199Z,13.40
2022-09-15T06:29:43.717Z,13.40
2022-09-15T06:32:18.206Z,13.40
2022-09-15T06:34:46.650Z,13.40
2022-09-15T06:37:22.205Z,13.40
2022-09-15T06:39:52.341Z,13.50
2022-09-15T06:42:27.209Z,13.50
2022-09-15T06:44:56.615Z,13.60
2022-09-15T06:47:31.211Z,13.70
2022-09-15T06:50:10.682Z,13.70
2022-09-15T06:52:45.350Z,13.80
2022-09-15T06:55:15.158Z,13.90
2022-09-15T06:57:50.134Z,13.90
2022-09-15T07:00:20.408Z,14.00
2022-09-15T07:02:57.224Z,14.00
2022-09-15T07:05:25.866Z,14.10
2022-09-15T07:08:01.364Z,14.20
2022-09-15T07:10:31.398Z,14.20
2022-09-15T07:13:08.235Z,14.30
2022-09-15T07:15:36.906Z,14.30
2022-09-15T07:18:12.198Z,14.30
2022-09-15T07:20:42.107Z,14.40
2022-09-15T07:23:17.362Z,14.30
2022-09-15T07:25:47.475Z,14.30
2022-09-15T07:28:23.317Z,14.30
2022-09-15T07:30:52.656Z,14.40
2022-09-15T07:33:27.254Z,14.50
2022-09-15T07:35:55.726Z,14.50
2022-09-15T07:38:31.374Z,14.60
2022-09-15T07:41:06.391Z,14.60
2022-09-15T07:43:41.404Z,14.60
2022-09-15T07:46:09.981Z,14.60
2022-09-15T07:48:45.288Z,14.50
2022-09-15T07:51:14.416Z,14.50
2022-09-15T07:53:49.225Z,14.60
2022-09-15T07:56:19.745Z,14.70
2022-09-15T07:58:55.594Z,14.80
2022-09-15T08:01:24.600Z,14.80
2022-09-15T08:04:00.412Z,14.90
2022-09-15T08:06:29.618Z,14.90
2022-09-15T08:09:04.615Z,14.90
2022-09-15T08:11:34.753Z,15.00
2022-09-15T08:14:10.242Z,15.10
2022-09-15T08:16:39.039Z,15.20
2022-09-15T08:19:15.488Z,15.30
2022-09-15T08:21:43.983Z,15.40
2022-09-15T08:24:25.320Z,15.50
2022-09-15T08:26:55.451Z,15.60
2022-09-15T08:29:30.425Z,15.70
2022-09-15T08:31:59.489Z,15.60
2022-09-15T08:34:36.231Z,15.60
2022-09-15T08:37:04.593Z,15.60
2022-09-15T08:39:39.433Z,15.60
2022-09-15T08:42:16.404Z,15.60
2022-09-15T08:44:56.425Z,15.70
2022-09-15T08:47:28.884Z,15.80
2022-09-15T08:50:09.281Z,15.80
2022-09-15T08:52:49.282Z,16.00
2022-09-15T08:55:23.878Z,16.10
2022-09-15T08:58:02.251Z,16.20
2022-09-15T09:00:31.349Z,16.20
2022-09-15T09:03:35.288Z,16.30
2022-09-15T09:06:14.725Z,16.40
2022-09-15T09:09:06.477Z,16.50
2022-09-15T09:11:50.894Z,16.60
2022-09-15T09:17:45.458Z,17.00
2022-09-15T09:20:37.478Z,17.20
2022-09-15T09:23:30.381Z,17.60
2022-09-15T09:26:10.544Z,17.90
2022-09-15T09:28:43.234Z,18.10
2022-09-15T09:31:25.419Z,18.50
2022-09-15T09:33:58.479Z,18.40
2022-09-15T09:36:34.510Z,18.30
2022-09-15T09:39:05.382Z,18.30
2022-09-15T09:41:54.384Z,18.50
2022-09-15T09:44:31.900Z,18.40
2022-09-15T09:47:10.336Z,18.40
2022-09-15T09:49:44.016Z,18.40
2022-09-15T09:52:22.017Z,18.70
2022-09-15T09:55:02.182Z,18.90
2022-09-15T09:57:40.864Z,19.30
2022-09-15T10:00:32.133Z,19.40
2022-09-15T10:03:19.360Z,19.40
2022-09-15T10:06:02.187Z,19.50
2022-09-15T10:08:37.410Z,19.70
2022-09-15T10:11:07.401Z,19.30
2022-09-15T10:13:43.544Z,19.10
2022-09-15T10:16:12.055Z,19.10
2022-09-15T10:18:53.433Z,19.20
2022-09-15T10:21:25.235Z,19.30
2022-09-15T10:24:43.525Z,19.60
2022-09-15T10:27:27.329Z,20.00
2022-09-15T10:30:02.429Z,20.10
2022-09-15T10:32:32.390Z,19.90
2022-09-15T10:35:12.541Z,19.60
2022-09-15T10:37:57.871Z,19.70
2022-09-15T10:40:47.366Z,19.80
2022-09-15T10:43:30.169Z,19.40
2022-09-15T10:46:12.458Z,19.40
2022-09-15T10:49:01.873Z,19.40
2022-09-15T10:51:48.391Z,19.30
2022-09-15T10:54:36.096Z,19.30
2022-09-15T10:57:24.483Z,19.10
2022-09-15T11:00:00.836Z,19.00
2022-09-15T11:02:56.414Z,18.80
2022-09-15T11:05:40.878Z,18.80
2022-09-15T11:08:39.590Z,18.60
2022-09-15T11:11:14.224Z,18.50
2022-09-15T11:13:57.569Z,18.50
2022-09-15T11:16:44.878Z,18.40
2022-09-15T11:22:39.583Z,18.30
2022-09-15T11:25:29.439Z,18.20
2022-09-15T11:28:03.001Z,18.20
2022-09-15T11:30:47.073Z,18.30
2022-09-15T11:33:22.021Z,18.20
2022-09-15T11:36:03.616Z,18.10
2022-09-15T11:38:43.148Z,18.00
2022-09-15T11:41:27.403Z,17.90
2022-09-15T11:44:16.630Z,17.80
2022-09-15T11:47:01.740Z,17.70
2022-09-15T11:49:43.642Z,17.60
2022-09-15T11:52:44.787Z,17.60
2022-09-15T11:55:31.644Z,17.60
2022-09-15T11:58:21.781Z,17.50
2022-09-15T12:01:04.744Z,17.50
2022-09-15T12:03:39.024Z,17.40
2022-09-15T12:06:20.797Z,17.40
2022-09-15T12:08:58.383Z,17.40
2022-09-15T12:12:12.615Z,17.30
2022-09-15T12:14:45.127Z,17.30
2022-09-15T12:17:26.680Z,17.30
2022-09-15T12:20:01.692Z,17.40
2022-09-15T12:22:42.686Z,17.30
2022-09-15T12:25:23.350Z,17.40
2022-09-15T12:28:43.540Z,17.40
2022-09-15T12:31:30.310Z,17.40
2022-09-15T12:34:08.559Z,17.40
2022-09-15T12:36:45.891Z,17.50
2022-09-15T12:39:37.479Z,17.50
2022-09-15T12:42:16.602Z,17.40
2022-09-15T12:44:54.563Z,17.40
2022-09-15T12:47:33.010Z,17.40
2022-09-15T12:50:36.522Z,17.40
2022-09-15T12:53:15.528Z,17.40
2022-09-15T12:55:58.677Z,17.40
2022-09-15T12:58:38.013Z,17.50
2022-09-15T13:01:55.820Z,17.60
2022-09-15T13:05:04.552Z,17.60
2022-09-15T13:07:54.235Z,17.50
2022-09-15T13:10:42.670Z,17.40
2022-09-15T13:13:24.034Z,17.30
2022-09-15T13:16:01.579Z,17.40
2022-09-15T13:18:32.203Z,17.50
2022-09-15T13:21:14.663Z,17.60
2022-09-15T13:23:54.009Z,17.60
2022-09-15T13:26:32.596Z,17.80
2022-09-15T13:29:01.701Z,18.00
2022-09-15T13:31:45.739Z,18.20
2022-09-15T13:35:08.627Z,18.20
2022-09-15T13:38:16.754Z,18.10
2022-09-15T13:41:25.718Z,18.30
2022-09-15T13:44:27.625Z,18.60
2022-09-15T13:47:12.427Z,18.50
2022-09-15T13:49:56.545Z,18.60
2022-09-15T13:52:50.701Z,18.60
2022-09-15T13:55:28.579Z,18.60
2022-09-15T14:01:09.626Z,18.90
2022-09-15T14:03:43.727Z,18.80
2022-09-15T14:06:22.613Z,18.80
2022-09-15T14:08:55.047Z,18.60
2022-09-15T14:11:34.599Z,18.70
2022-09-15T14:14:03.551Z,18.70
2022-09-15T14:16:41.663Z,18.80
2022-09-15T14:19:41.521Z,19.00
2022-09-15T14:22:32.587Z,18.80
2022-09-15T14:25:16.629Z,18.60
2022-09-15T14:27:53.578Z,18.50
2022-09-15T14:30:25.309Z,18.50
2022-09-15T14:33:02.638Z,18.40
2022-09-15T14:35:36.671Z,18.40
2022-09-15T14:38:11.653Z,18.30
2022-09-15T14:40:41.660Z,18.20
2022-09-15T14:43:33.716Z,18.30
2022-09-15T14:46:12.321Z,18.30
2022-09-15T14:48:47.735Z,18.20
2022-09-15T14:51:23.117Z,18.20
2022-09-15T14:54:00.810Z,18.10
2022-09-15T14:56:35.166Z,18.00
2022-09-15T14:59:14.616Z,18.00
2022-09-15T15:01:53.507Z,18.00
2022-09-15T15:04:34.710Z,18.00
2022-09-15T15:07:08.573Z,17.90
2022-09-15T15:09:49.730Z,17.90
2022-09-15T15:12:28.501Z,17.70
2022-09-15T15:15:04.794Z,17.60
2022-09-15T15:17:37.963Z,17.60
2022-09-15T15:20:25.621Z,17.60
2022-09-15T15:23:21.145Z,17.60
2022-09-15T15:26:22.795Z,17.70
2022-09-15T15:28:52.381Z,17.60
2022-09-15T15:31:29.820Z,17.60
2022-09-15T15:34:05.129Z,17.60
2022-09-15T15:36:42.653Z,17.60
2022-09-15T15:39:24.795Z,17.70
2022-09-15T15:42:10.820Z,17.60
2022-09-15T15:44:59.792Z,17.60
2022-09-15T15:47:37.827Z,17.50
2022-09-15T15:50:14.469Z,17.40
2022-09-15T15:52:50.649Z,17.50
2022-09-15T15:55:20.932Z,17.50
2022-09-15T15:57:58.662Z,17.40
2022-09-15T16:00:34.498Z,17.30
2022-09-15T16:03:09.742Z,17.30
2022-09-15T16:05:39.090Z,17.20
2022-09-15T16:08:17.754Z,17.20
2022-09-15T16:10:49.822Z,17.10
2022-09-15T16:13:29.700Z,17.10
2022-09-15T16:16:01.884Z,17.00
2022-09-15T16:18:36.869Z,16.90
2022-09-15T16:21:06.068Z,16.80
2022-09-15T16:23:41.040Z,16.80
2022-09-15T16:26:16.921Z,16.90
2022-09-15T16:28:51.844Z,16.90
2022-09-15T16:31:21.974Z,16.80
2022-09-15T16:33:57.847Z,16.80
2022-09-15T16:36:27.939Z,16.70
2022-09-15T16:39:02.890Z,16.70
2022-09-15T16:41:33.061Z,16.70
2022-09-15T16:44:12.714Z,16.60
2022-09-15T16:46:42.595Z,16.60
2022-09-15T16:49:17.781Z,16.50
2022-09-15T16:51:46.654Z,16.50
2022-09-15T16:54:24.837Z,16.40
2022-09-15T16:56:53.353Z,16.40
2022-09-15T16:59:28.801Z,16.30
2022-09-15T17:01:59.311Z,16.30
2022-09-15T17:04:34.772Z,16.30
2022-09-15T17:07:09.731Z,16.30
2022-09-15T17:09:38.753Z,16.20
2022-09-15T17:14:47.265Z,16.20
2022-09-15T17:17:32.687Z,16.20
2022-09-15T17:20:00.852Z,16.10
2022-09-15T17:22:35.755Z,16.00
2022-09-15T17:25:44.723Z,15.90
2022-09-15T17:28:19.780Z,15.90
2022-09-15T17:30:49.376Z,15.90
2022-09-15T17:33:27.958Z,15.80
2022-09-15T17:35:56.381Z,15.80
2022-09-15T17:38:31.893Z,15.70
2022-09-15T17:41:00.510Z,15.70
2022-09-15T17:43:38.956Z,15.60
2022-09-15T17:46:09.007Z,15.60
2022-09-15T17:48:45.838Z,15.50
2022-09-15T17:51:17.182Z,15.60
2022-09-15T17:53:54.149Z,15.50
2022-09-15T17:56:22.813Z,15.50
2022-09-15T17:58:57.850Z,15.50
2022-09-15T18:01:26.467Z,15.50
2022-09-15T18:04:02.935Z,15.60
2022-09-15T18:06:31.500Z,15.50
2022-09-15T18:09:06.887Z,15.60
2022-09-15T18:12:03.024Z,15.50
2022-09-15T18:14:37.862Z,15.50
2022-09-15T18:17:09.024Z,15.50
2022-09-15T18:19:46.916Z,15.50
2022-09-15T18:22:16.238Z,15.50
2022-09-15T18:24:51.777Z,15.50
2022-09-15T18:27:20.182Z,15.50
2022-09-15T18:29:54.880Z,15.50
2022-09-15T18:32:23.484Z,15.50
2022-09-15T18:34:59.805Z,15.50
2022-09-15T18:37:30.729Z,15.50
2022-09-15T18:40:05.931Z,15.50
2022-09-15T18:42:37.875Z,15.50
2022-09-15T18:45:14.896Z,15.50
2022-09-15T18:47:53.850Z,15.50
2022-09-15T18:50:25.805Z,15.50
2022-09-15T18:53:00.903Z,15.50
2022-09-15T18:55:31.676Z,15.50
2022-09-15T18:58:11.429Z,15.40
2022-09-15T19:00:40.819Z,15.40
2022-09-15T19:03:17.049Z,15.40
2022-09-15T19:05:46.924Z,15.40
2022-09-15T19:08:22.026Z,15.40
2022-09-15T19:10:58.378Z,15.40
2022-09-15T19:13:33.912Z,15.30
2022-09-15T19:16:04.677Z,15.30
2022-09-15T19:18:39.921Z,15.30
2022-09-15T19:21:13.301Z,15.30
2022-09-15T19:23:47.940Z,15.20
2022-09-15T19:26:25.869Z,15.20
2022-09-15T19:29:01.022Z,15.20
2022-09-15T19:31:29.395Z,15.20
2022-09-15T19:34:05.109Z,15.10
2022-09-15T19:36:35.306Z,15.10
2022-09-15T19:39:10.970Z,15.10
2022-09-15T19:41:39.562Z,15.10
2022-09-15T19:44:15.038Z,15.10
2022-09-15T19:46:43.711Z,15.10
2022-09-15T19:49:18.075Z,15.10
2022-09-15T19:51:53.180Z,15.10
2022-09-15T19:54:27.899Z,15.10
2022-09-15T19:56:56.855Z,15.10
2022-09-15T19:59:34.735Z,15.10
2022-09-15T20:02:03.528Z,15.00
2022-09-15T20:04:39.087Z,15.00
2022-09-15T20:07:12.736Z,15.00
2022-09-15T20:09:47.967Z,14.90
2022-09-15T20:12:16.861Z,14.90
2022-09-15T20:14:51.963Z,14.90
2022-09-15T20:17:20.639Z,14.90
2022-09-15T20:19:56.104Z,14.90
2022-09-15T20:22:26.201Z,14.90
2022-09-15T20:25:07.925Z,14.90
2022-09-15T20:27:44.315Z,14.90
2022-09-15T20:30:20.979Z,15.00
2022-09-15T20:32:49.418Z,15.00
2022-09-15T20:35:25.095Z,14.90
2022-09-15T20:37:55.060Z,14.90
2022-09-15T20:40:29.971Z,14.90
2022-09-15T20:42:59.027Z,14.90
2022-09-15T20:45:37.103Z,14.90
2022-09-15T20:48:05.913Z,14.90
2022-09-15T20:50:51.903Z,14.90
2022-09-15T20:53:21.851Z,14.90
2022-09-15T20:55:58.046Z,14.90
2022-09-15T20:58:27.457Z,14.90
2022-09-15T21:01:12.249Z,14.90
2022-09-15T21:03:43.470Z,14.90
2022-09-15T21:06:20.137Z,14.80
2022-09-15T21:08:50.708Z,14.80
2022-09-15T21:11:28.134Z,14.80
2022-09-15T21:13:57.457Z,14.80
2022-09-15T21:16:36.121Z,14.80
2022-09-15T21:19:04.698Z,14.70
2022-09-15T21:21:41.005Z,14.70
2022-09-15T21:24:19.550Z,14.70
2022-09-15T21:27:18.184Z,14.80
2022-09-15T21:29:54.077Z,14.70
2022-09-15T21:32:25.817Z,14.70
2022-09-15T21:35:01.941Z,14.70
2022-09-15T21:37:30.504Z,14.70
2022-09-15T21:40:07.045Z,14.70
2022-09-15T21:42:35.691Z,14.70
2022-09-15T21:45:12.096Z,14.70
2022-09-15T21:47:40.623Z,14.60
2022-09-15T21:50:16.145Z,14.60
2022-09-15T21:52:47.523Z,14.60
2022-09-15T21:55:24.098Z,14.60
2022-09-15T21:57:52.639Z,14.60
2022-09-15T22:00:28.193Z,14.60
2022-09-15T22:02:56.761Z,14.60
2022-09-15T22:05:32.088Z,14.60
2022-09-15T22:08:04.217Z,14.50
2022-09-15T22:10:42.178Z,14.50
2022-09-15T22:13:12.787Z,14.60
2022-09-15T22:15:48.113Z,14.50
2022-09-15T22:18:16.517Z,14.50
2022-09-15T22:20:51.201Z,14.50
2022-09-15T22:23:19.621Z,14.60
2022-09-15T22:26:03.043Z,14.60
2022-09-15T22:28:39.512Z,14.60
2022-09-15T22:31:17.206Z,14.60
2022-09-15T22:33:46.346Z,14.50
2022-09-15T22:36:28.112Z,14.50
2022-09-15T22:39:03.590Z,14.50
2022-09-15T22:41:41.185Z,14.50
2022-09-15T22:44:19.355Z,14.50
2022-09-15T22:46:56.127Z,14.50
2022-09-15T22:49:25.578Z,14.50
2022-09-15T22:52:01.073Z,14.50
2022-09-15T22:54:29.589Z,14.50
2022-09-15T22:57:06.113Z,14.50
2022-09-15T22:59:34.491Z,14.50
2022-09-15T23:02:11.223Z,14.50
2022-09-15T23:04:50.757Z,14.50
2022-09-15T23:07:26.251Z,14.40
2022-09-15T23:09:54.517Z,14.40
2022-09-15T23:12:31.249Z,14.40
2022-09-15T23:15:03.921Z,14.30
2022-09-15T23:17:39.279Z,14.30
2022-09-15T23:20:08.453Z,14.30
2022-09-15T23:22:43.105Z,14.30
2022-09-15T23:25:18.927Z,14.30
2022-09-15T23:27:56.273Z,14.20
2022-09-15T23:30:24.611Z,14.20
2022-09-15T23:32:59.265Z,14.20
2022-09-15T23:35:27.930Z,14.20
2022-09-15T23:38:07.179Z,14.10
2022-09-15T23:40:35.751Z,14.10
2022-09-15T23:43:14.251Z,14.00
2022-09-15T23:45:43.925Z,13.90
2022-09-15T23:48:20.399Z,13.90
2022-09-15T23:50:49.287Z,13.90
2022-09-15T23:53:25.107Z,13.80
2022-09-15T23:55:53.940Z,13.80
2022-09-15T23:58:30.188Z,13.80
